Time;durP1;ratioP1;P1;durP2;ratioP2;P2;SDS_P1;SDS_P2;PMS_P1;PMS_P2;Temp;Humidity;BMP_temperature;BMP_pressure;BME280_temperature;BME280_humidity;BME280_pressure;Samples;Min_cycle;Max_cycle;Signal;HPM_P1;HPM_P2
2024/03/06 00:04:08;;;;;;;45.00;28.70;;;;;;;6.57;69.02;99196.08;232083;205;138035;-53
2024/03/06 00:09:12;;;;;;;42.40;26.40;;;;;;;6.49;69.28;99192.41;232201;197;153168;-55
2024/03/06 00:14:15;;;;;;;48.00;29.00;;;;;;;6.41;69.16;99192.89;232216;198;138448;-55
2024/03/06 00:19:19;;;;;;;44.70;28.20;;;;;;;6.36;69.10;99192.05;232003;198;139157;-56
2024/03/06 00:24:22;;;;;;;43.50;27.50;;;;;;;6.24;69.41;99195.90;232113;198;153231;-56
2024/03/06 00:29:26;;;;;;;44.00;27.40;;;;;;;6.19;69.59;99203.33;231856;205;138581;-56
2024/03/06 00:34:32;;;;;;;43.70;25.70;;;;;;;6.13;69.60;99200.77;232265;201;138571;-56
2024/03/06 00:39:35;;;;;;;40.70;26.00;;;;;;;6.17;69.87;99202.54;232286;198;154850;-55
2024/03/06 00:44:38;;;;;;;46.30;27.80;;;;;;;6.21;69.68;99203.44;232012;198;141994;-56
2024/03/06 00:49:42;;;;;;;47.50;28.80;;;;;;;6.20;69.57;99205.95;231815;199;138714;-54
2024/03/06 00:54:45;;;;;;;45.70;28.70;;;;;;;6.18;69.54;99208.13;232283;197;153290;-55
2024/03/06 00:59:48;;;;;;;41.70;26.40;;;;;;;6.15;69.69;99213.88;232134;205;138481;-54
2024/03/06 01:04:51;;;;;;;43.50;26.50;;;;;;;6.09;69.47;99215.39;232047;198;138257;-54
2024/03/06 01:09:57;;;;;;;43.40;25.40;;;;;;;5.99;69.62;99222.64;232093;198;154252;-54
2024/03/06 01:15:00;;;;;;;44.60;25.30;;;;;;;5.89;69.72;99215.45;232046;201;138496;-56
2024/03/06 01:20:06;;;;;;;45.60;25.40;;;;;;;5.80;69.90;99215.63;232131;201;138836;-55
2024/03/06 01:25:09;;;;;;;41.70;25.40;;;;;;;5.75;70.20;99207.58;231982;198;153386;-54
2024/03/06 01:30:13;;;;;;;39.70;24.10;;;;;;;5.71;70.36;99209.48;232211;198;140806;-55
2024/03/06 01:35:16;;;;;;;44.80;26.60;;;;;;;5.66;70.47;99205.62;232342;204;137495;-56
2024/03/06 01:40:19;;;;;;;41.60;25.20;;;;;;;5.62;70.62;99210.17;232195;201;153105;-56
2024/03/06 01:45:23;;;;;;;40.10;23.60;;;;;;;5.54;70.75;99219.29;232138;197;138116;-56
2024/03/06 01:50:26;;;;;;;38.60;23.30;;;;;;;5.55;71.20;99217.83;232141;205;138734;-55
2024/03/06 01:55:30;;;;;;;44.60;25.90;;;;;;;5.61;71.29;99220.95;232085;205;153210;-53
2024/03/06 02:00:33;;;;;;;38.00;23.30;;;;;;;5.67;71.37;99223.36;232208;205;138638;-55
2024/03/06 02:05:37;;;;;;;36.40;22.30;;;;;;;5.72;71.16;99216.85;232163;201;137884;-54
2024/03/06 02:10:41;;;;;;;41.20;22.80;;;;;;;5.75;70.81;99216.71;232005;205;155241;-53
2024/03/06 02:15:45;;;;;;;32.50;20.90;;;;;;;5.74;70.70;99215.88;231486;205;138670;-55
2024/03/06 02:20:50;;;;;;;38.70;22.70;;;;;;;5.70;70.82;99220.27;232011;201;137359;-56
2024/03/06 02:25:53;;;;;;;33.00;21.00;;;;;;;5.63;70.84;99218.25;232250;205;153777;-55
2024/03/06 02:30:56;;;;;;;31.90;20.40;;;;;;;5.59;71.00;99226.50;232223;196;137346;-54
2024/03/06 02:36:00;;;;;;;31.50;20.80;;;;;;;5.56;70.94;99235.75;232041;198;138656;-54
2024/03/06 02:41:03;;;;;;;29.10;19.20;;;;;;;5.55;70.97;99235.64;232026;198;153104;-54
2024/03/06 02:46:07;;;;;;;31.70;19.60;;;;;;;5.49;71.12;99245.52;232199;202;138233;-55
2024/03/06 02:51:10;;;;;;;28.80;20.10;;;;;;;5.43;71.07;99241.71;232239;204;138097;-54
2024/03/06 02:56:17;;;;;;;29.80;19.20;;;;;;;5.41;71.54;99244.98;232211;198;153197;-54
2024/03/06 03:01:21;;;;;;;29.80;18.90;;;;;;;5.45;71.68;99245.16;232047;198;139454;-53
2024/03/06 03:06:24;;;;;;;31.30;21.10;;;;;;;5.52;71.50;99251.23;232153;201;138419;-55
2024/03/06 03:11:27;;;;;;;32.70;21.30;;;;;;;5.60;71.44;99253.39;232237;202;153774;-54
2024/03/06 03:16:32;;;;;;;33.90;22.00;;;;;;;5.59;71.06;99252.71;232049;202;138611;-53
2024/03/06 03:21:35;;;;;;;34.90;21.50;;;;;;;5.58;70.99;99256.64;231933;201;137850;-53
2024/03/06 03:26:38;;;;;;;34.40;22.60;;;;;;;5.59;71.22;99264.70;232270;198;153538;-55
2024/03/06 03:31:42;;;;;;;40.30;23.90;;;;;;;5.62;71.29;99263.52;232228;197;138900;-53
2024/03/06 03:36:45;;;;;;;39.90;24.30;;;;;;;5.55;71.17;99261.88;231966;201;138519;-54
2024/03/06 03:41:49;;;;;;;37.40;22.30;;;;;;;5.50;71.25;99260.45;232108;205;154414;-55
2024/03/06 03:46:52;;;;;;;36.60;22.90;;;;;;;5.41;71.15;99268.52;232123;198;138021;-55
2024/03/06 03:51:55;;;;;;;38.20;22.20;;;;;;;5.35;71.56;99272.96;232303;201;138184;-55
2024/03/06 03:56:59;;;;;;;35.40;22.80;;;;;;;5.40;71.54;99269.09;232378;201;154114;-55
2024/03/06 04:02:03;;;;;;;37.60;23.80;;;;;;;5.43;71.48;99263.71;232264;204;138725;-54
2024/03/06 04:07:06;;;;;;;39.90;23.80;;;;;;;5.44;71.19;99266.81;232320;197;139154;-53
2024/03/06 04:12:10;;;;;;;37.30;24.40;;;;;;;5.50;71.14;99268.73;232136;198;154678;-55
2024/03/06 04:17:13;;;;;;;40.00;24.10;;;;;;;5.53;71.20;99263.69;232205;198;138295;-54
2024/03/06 04:22:19;;;;;;;94.10;70.50;;;;;;;5.57;70.87;99270.94;232231;198;138295;-55
2024/03/06 04:27:22;;;;;;;89.90;62.80;;;;;;;5.65;71.43;99264.45;232349;205;153231;-56
2024/03/06 04:32:25;;;;;;;233.10;169.90;;;;;;;5.71;71.20;99267.90;232057;197;137895;-56
2024/03/06 04:37:29;;;;;;;38.50;24.50;;;;;;;5.74;71.04;99277.67;232068;197;138224;-54
2024/03/06 04:42:32;;;;;;;31.30;20.80;;;;;;;5.70;70.40;99273.23;231989;205;153150;-55
2024/03/06 04:47:36;;;;;;;30.20;19.60;;;;;;;5.62;70.18;99277.23;232283;198;137806;-51
2024/03/06 04:52:40;;;;;;;384.70;272.70;;;;;;;5.61;70.71;99272.87;232316;205;137262;-54
2024/03/06 04:57:45;;;;;;;27.20;18.30;;;;;;;5.76;71.27;99268.79;232193;205;152945;-55
2024/03/06 05:02:49;;;;;;;28.20;18.80;;;;;;;5.76;69.99;99271.59;232327;201;138309;-52
2024/03/06 05:08:07;;;;;;;28.40;18.60;;;;;;;5.71;69.37;99274.05;232161;205;138210;-53
2024/03/06 05:13:26;;;;;;;31.70;19.20;;;;;;;5.70;69.34;99283.63;231646;201;153886;-51
2024/03/06 05:18:42;;;;;;;30.30;18.90;;;;;;;5.74;69.26;99288.23;232300;198;140020;-53
2024/03/06 05:23:59;;;;;;;28.80;18.40;;;;;;;5.71;69.32;99289.05;232448;201;137791;-54
2024/03/06 05:29:18;;;;;;;62.10;48.10;;;;;;;5.66;69.17;99288.35;232296;201;154433;-55
2024/03/06 05:34:35;;;;;;;32.20;21.40;;;;;;;5.68;70.81;99292.67;232251;197;138052;-51
2024/03/06 05:39:54;;;;;;;33.60;20.70;;;;;;;5.66;69.15;99299.07;232193;202;137672;-52
2024/03/06 05:45:13;;;;;;;30.10;19.30;;;;;;;5.54;69.12;99291.80;232225;198;153805;-53
2024/03/06 05:50:30;;;;;;;28.60;19.10;;;;;;;5.45;69.09;99296.54;232290;197;138267;-52
2024/03/06 05:55:47;;;;;;;30.50;18.30;;;;;;;5.44;69.08;99303.06;231942;202;137844;-52
2024/03/06 06:01:04;;;;;;;35.60;20.80;;;;;;;5.46;69.02;99298.44;232322;202;153949;-54
2024/03/06 06:06:10;;;;;;;35.80;21.60;;;;;;;5.49;68.92;99311.50;232089;201;138631;-53
2024/03/06 06:11:14;;;;;;;40.80;22.70;;;;;;;5.52;68.81;99310.20;232306;202;138777;-52
2024/03/06 06:16:17;;;;;;;30.40;20.40;;;;;;;5.54;68.79;99308.88;231866;205;153523;-53
2024/03/06 06:21:20;;;;;;;32.60;21.20;;;;;;;5.49;68.96;99312.23;231844;201;139158;-50
2024/03/06 06:26:24;;;;;;;29.10;19.30;;;;;;;5.52;69.14;99314.56;232342;198;137812;-52
2024/03/06 06:31:27;;;;;;;27.70;17.90;;;;;;;5.51;68.95;99315.65;232187;201;152788;-53
2024/03/06 06:36:31;;;;;;;25.90;18.30;;;;;;;5.51;68.78;99319.02;232268;205;138308;-52
2024/03/06 06:41:34;;;;;;;28.00;17.20;;;;;;;5.47;68.89;99317.93;232164;201;137494;-52
2024/03/06 06:46:39;;;;;;;26.30;17.30;;;;;;;5.44;68.55;99312.21;232104;198;153137;-53
2024/03/06 06:51:42;;;;;;;28.10;18.20;;;;;;;5.44;68.56;99319.08;232117;205;137726;-52
2024/03/06 06:56:45;;;;;;;28.40;17.20;;;;;;;5.51;68.38;99321.48;232274;202;138876;-54
2024/03/06 07:01:48;;;;;;;27.60;18.30;;;;;;;5.65;67.97;99321.32;232374;205;154359;-51
2024/03/06 07:06:52;;;;;;;27.00;18.00;;;;;;;5.71;67.71;99325.13;232286;202;138527;-51
2024/03/06 07:11:55;;;;;;;33.10;18.60;;;;;;;5.72;67.38;99326.32;232080;204;138081;-54
2024/03/06 07:16:59;;;;;;;31.50;19.70;;;;;;;5.67;67.30;99326.84;232149;198;154855;-54
2024/03/06 07:22:03;;;;;;;31.10;18.90;;;;;;;5.61;67.44;99326.73;232258;197;138489;-52
2024/03/06 07:27:08;;;;;;;31.90;19.60;;;;;;;5.55;67.61;99330.14;232306;198;137822;-55
2024/03/06 07:32:11;;;;;;;;;;;;;;;5.53;67.57;99327.56;232099;202;153145;-52
2024/03/06 07:37:15;;;;;;;31.20;19.50;;;;;;;5.46;67.76;99328.54;232245;197;138085;-54
2024/03/06 07:42:18;;;;;;;34.70;21.20;;;;;;;5.42;67.98;99331.50;232167;205;137501;-53
2024/03/06 07:47:21;;;;;;;30.90;19.70;;;;;;;5.45;68.17;99334.19;232338;198;153217;-55
2024/03/06 07:52:24;;;;;;;28.40;18.90;;;;;;;5.43;68.30;99334.77;232278;205;137765;-53
2024/03/06 07:57:26;;;;;;;27.30;18.90;;;;;;;5.36;68.55;99337.34;231916;199;137399;-53
2024/03/06 08:02:29;;;;;;;30.70;18.70;;;;;;;5.36;68.66;99338.90;232025;199;156154;-54
2024/03/06 08:07:31;;;;;;;30.70;19.60;;;;;;;5.45;68.64;99341.75;232065;205;139209;-50
2024/03/06 08:12:34;;;;;;;30.10;19.70;;;;;;;5.51;68.56;99344.90;232014;198;137885;-55
2024/03/06 08:17:38;;;;;;;32.40;19.80;;;;;;;5.50;68.46;99342.13;232068;201;156414;-54
2024/03/06 08:22:42;;;;;;;32.30;19.90;;;;;;;5.51;68.53;99344.52;231978;198;137344;-55
2024/03/06 08:27:44;;;;;;;27.40;19.00;;;;;;;5.50;68.86;99345.98;232112;202;140761;-52
2024/03/06 08:32:47;;;;;;;33.20;21.10;;;;;;;5.52;69.18;99345.73;232062;198;155125;-53
2024/03/06 08:37:50;;;;;;;31.30;19.40;;;;;;;5.62;69.13;99344.65;232027;198;137687;-55
2024/03/06 08:42:52;;;;;;;31.60;19.50;;;;;;;5.66;69.15;99345.70;232164;204;138361;-52
2024/03/06 08:47:55;;;;;;;30.40;19.70;;;;;;;5.70;69.67;99349.62;232126;198;155773;-53
2024/03/06 08:52:57;;;;;;;30.30;19.90;;;;;;;5.74;69.56;99354.27;232119;198;138019;-54
2024/03/06 08:58:01;;;;;;;29.50;19.30;;;;;;;5.74;69.47;99360.40;232073;198;137219;-55
2024/03/06 09:03:04;;;;;;;30.20;20.00;;;;;;;5.78;69.53;99361.47;232175;198;155389;-54
2024/03/06 09:08:06;;;;;;;31.60;20.70;;;;;;;5.83;69.62;99362.19;231972;205;138618;-53
2024/03/06 09:13:11;;;;;;;38.00;22.90;;;;;;;5.90;69.45;99360.16;232169;205;138205;-52
2024/03/06 09:18:15;;;;;;;34.70;21.10;;;;;;;5.96;69.56;99359.09;232166;202;152963;-55
2024/03/06 09:23:17;;;;;;;30.00;19.80;;;;;;;6.05;69.51;99359.28;232095;205;138325;-53
2024/03/06 09:28:20;;;;;;;29.30;20.00;;;;;;;6.00;69.28;99355.95;232238;202;138325;-53
2024/03/06 09:33:23;;;;;;;30.80;20.30;;;;;;;5.94;69.59;99351.38;232004;201;154887;-55
2024/03/06 09:38:25;;;;;;;32.60;20.60;;;;;;;5.90;69.67;99353.10;231830;197;139093;-54
2024/03/06 09:43:27;;;;;;;27.60;19.20;;;;;;;5.89;69.79;99358.58;232063;202;137797;-55
2024/03/06 09:48:33;;;;;;;30.00;19.50;;;;;;;5.87;69.92;99358.48;232084;197;154806;-53
2024/03/06 09:53:40;;;;;;;29.10;20.40;;;;;;;5.91;70.19;99354.83;231723;205;137550;-53
2024/03/06 09:58:42;;;;;;;27.50;19.50;;;;;;;5.97;70.40;99354.48;230842;201;138992;-51
2024/03/06 10:03:46;;;;;;;29.40;20.50;;;;;;;6.06;70.52;99356.92;231327;201;153454;-55
2024/03/06 10:08:50;;;;;;;29.30;20.10;;;;;;;6.14;70.38;99358.91;232290;196;138500;-54
2024/03/06 10:13:53;;;;;;;60.20;37.60;;;;;;;6.13;71.18;99358.23;232420;204;137883;-54
2024/03/06 10:18:55;;;;;;;31.30;20.80;;;;;;;6.23;71.03;99357.51;232192;200;154935;-52
2024/03/06 10:23:57;;;;;;;35.20;22.30;;;;;;;6.21;70.72;99363.41;232275;197;138615;-52
2024/03/06 10:29:01;;;;;;;35.20;21.60;;;;;;;6.20;70.96;99361.33;232405;200;138003;-53
2024/03/06 10:34:03;;;;;;;35.70;22.60;;;;;;;6.23;71.00;99359.81;232349;200;155118;-53
2024/03/06 10:39:09;;;;;;;33.40;22.10;;;;;;;6.33;70.71;99360.29;232345;204;138252;-51
2024/03/06 10:44:15;;;;;;;33.00;21.20;;;;;;;6.35;70.61;99354.03;232221;200;138030;-53
2024/03/06 10:49:19;;;;;;;35.00;23.50;;;;;;;6.42;70.62;99351.66;232403;204;155028;-55
2024/03/06 10:54:23;;;;;;;36.40;22.20;;;;;;;6.47;70.83;99353.20;232370;200;137507;-54
2024/03/06 10:59:29;;;;;;;34.10;22.20;;;;;;;6.54;71.00;99353.08;232430;204;139021;-51
2024/03/06 11:04:35;;;;;;;32.50;21.90;;;;;;;6.57;71.11;99353.50;231483;201;156366;-55
2024/03/06 11:09:38;;;;;;;33.50;23.20;;;;;;;6.70;71.16;99346.64;232370;203;142204;-52
2024/03/06 11:14:40;;;;;;;33.20;23.30;;;;;;;6.85;70.93;99340.52;232399;204;138440;-54
2024/03/06 11:20:03;;;;;;;35.60;22.40;;;;;;;6.89;70.36;99345.84;232427;201;153664;-53
2024/03/06 11:25:06;;;;;;;33.50;22.30;;;;;;;6.75;70.44;99342.70;232403;201;138485;-53
2024/03/06 11:30:13;;;;;;;38.70;23.20;;;;;;;6.74;70.80;99340.66;232486;204;142182;-54
2024/03/06 11:35:18;;;;;;;30.50;21.50;;;;;;;6.76;71.01;99337.02;232334;204;153410;-50
2024/03/06 11:40:27;;;;;;;34.20;23.00;;;;;;;6.78;71.00;99339.08;232426;203;137708;-53
2024/03/06 11:45:31;;;;;;;34.10;22.70;;;;;;;6.80;71.04;99333.52;232330;204;139683;-53
2024/03/06 11:50:34;;;;;;;31.20;20.60;;;;;;;6.81;71.30;99329.77;232428;198;155165;-53
2024/03/06 11:55:36;;;;;;;28.40;20.70;;;;;;;6.85;71.40;99330.12;232397;204;138602;-54
2024/03/06 12:00:38;;;;;;;33.40;22.20;;;;;;;6.90;71.54;99327.08;232383;200;137808;-53
2024/03/06 12:05:41;;;;;;;36.90;23.60;;;;;;;6.92;71.58;99323.86;232429;201;154905;-53
2024/03/06 12:10:45;;;;;;;32.40;22.90;;;;;;;6.93;71.67;99321.34;232429;198;137883;-52
2024/03/06 12:15:48;;;;;;;35.30;23.80;;;;;;;7.01;71.75;99323.13;232419;204;137454;-55
2024/03/06 12:20:51;;;;;;;35.80;24.30;;;;;;;7.07;71.60;99324.10;232530;200;153495;-54
2024/03/06 12:26:09;;;;;;;38.70;23.90;;;;;;;7.03;71.57;99323.19;232372;204;138141;-53
2024/03/06 12:31:12;;;;;;;34.40;23.00;;;;;;;7.01;71.94;99318.71;232412;201;139592;-54
2024/03/06 12:36:15;;;;;;;31.30;22.60;;;;;;;6.94;72.35;99316.35;232415;204;154367;-53
2024/03/06 12:41:17;;;;;;;35.50;23.90;;;;;;;6.94;72.60;99314.09;232376;203;137641;-55
2024/03/06 12:46:19;;;;;;;30.90;21.20;;;;;;;6.93;72.62;99314.98;232303;204;138182;-53
2024/03/06 12:51:22;;;;;;;30.40;21.60;;;;;;;6.94;72.62;99315.44;232415;200;153593;-56
2024/03/06 12:56:25;;;;;;;31.00;22.10;;;;;;;7.07;72.70;99317.34;232415;204;138245;-52
2024/03/06 13:01:27;;;;;;;33.70;21.60;;;;;;;7.16;72.46;99318.40;232413;200;138973;-51
2024/03/06 13:06:31;;;;;;;30.50;22.40;;;;;;;7.20;72.41;99317.84;232114;196;153849;-54
2024/03/06 13:11:33;;;;;;;32.00;22.40;;;;;;;7.25;72.31;99321.54;232378;201;138043;-53
2024/03/06 13:16:36;;;;;;;35.90;25.30;;;;;;;7.26;72.90;99320.25;232289;197;137893;-54
2024/03/06 13:21:38;;;;;;;31.20;22.20;;;;;;;7.33;72.36;99318.89;232356;200;155000;-53
2024/03/06 13:26:40;;;;;;;31.10;22.10;;;;;;;7.28;72.16;99317.35;232166;198;140246;-54
2024/03/06 13:31:42;;;;;;;31.70;22.20;;;;;;;7.18;72.44;99315.30;232387;204;138486;-53
2024/03/06 13:36:47;;;;;;;29.30;21.20;;;;;;;7.14;72.81;99319.02;232339;204;156370;-55
2024/03/06 13:41:52;;;;;;;30.00;20.30;;;;;;;7.17;72.78;99312.52;232393;204;138438;-55
2024/03/06 13:46:55;;;;;;;31.60;21.70;;;;;;;7.27;72.85;99312.63;232383;201;138781;-54
2024/03/06 13:51:58;;;;;;;28.10;20.20;;;;;;;7.29;72.94;99313.06;232206;204;155423;-54
2024/03/06 13:57:04;;;;;;;30.90;20.70;;;;;;;7.24;73.23;99310.80;232186;198;137410;-55
2024/03/06 14:02:07;;;;;;;30.10;20.00;;;;;;;7.18;73.40;99312.13;232150;198;139814;-55
2024/03/06 14:07:09;;;;;;;26.60;18.20;;;;;;;7.18;73.97;99311.77;232130;197;155415;-54
2024/03/06 14:12:12;;;;;;;25.80;17.10;;;;;;;7.16;74.01;99315.58;232357;204;138523;-55
2024/03/06 14:17:14;;;;;;;24.10;16.40;;;;;;;7.13;74.23;99309.89;232412;203;140573;-53
2024/03/06 14:22:16;;;;;;;27.50;17.00;;;;;;;7.11;74.48;99310.15;232271;198;156338;-54
2024/03/06 14:27:18;;;;;;;21.90;14.30;;;;;;;7.16;74.78;99313.64;231843;197;138775;-54
2024/03/06 14:32:21;;;;;;;22.50;16.10;;;;;;;7.27;74.71;99307.69;232402;204;138493;-53
2024/03/06 14:37:23;;;;;;;23.90;16.50;;;;;;;7.38;74.63;99305.76;232247;200;155946;-53
2024/03/06 14:42:25;;;;;;;27.00;18.00;;;;;;;7.52;74.44;99306.20;232242;198;141035;-54
2024/03/06 14:47:28;;;;;;;28.90;18.00;;;;;;;7.54;74.34;99304.67;232299;204;138206;-54
2024/03/06 14:52:30;;;;;;;28.70;19.20;;;;;;;7.54;74.34;99302.23;232312;204;154001;-55
2024/03/06 14:57:32;;;;;;;26.10;18.20;;;;;;;7.52;74.35;99304.60;232278;204;137290;-54
2024/03/06 15:02:35;;;;;;;27.30;18.90;;;;;;;7.54;74.45;99309.48;232232;196;137479;-54
2024/03/06 15:07:41;;;;;;;26.00;16.60;;;;;;;7.48;74.52;99313.45;232286;197;155961;-54
2024/03/06 15:12:44;;;;;;;;;;;;;;;7.51;74.80;99311.55;232275;204;138133;-53
2024/03/06 15:17:47;;;;;;;30.30;18.70;;;;;;;7.59;74.70;99315.39;232353;204;137126;-53
2024/03/06 15:22:50;;;;;;;29.50;19.90;;;;;;;7.68;74.90;99313.04;231985;200;153260;-53
2024/03/06 15:27:52;;;;;;;32.10;20.90;;;;;;;7.77;74.74;99311.77;232338;204;138870;-53
2024/03/06 15:32:55;;;;;;;33.20;21.10;;;;;;;7.77;74.66;99317.05;232279;200;137757;-54
2024/03/06 15:37:58;;;;;;;33.30;21.10;;;;;;;7.76;74.78;99319.93;232371;204;155514;-54
2024/03/06 15:43:00;;;;;;;31.20;21.40;;;;;;;7.75;74.92;99324.90;232284;200;137519;-55
2024/03/06 15:48:03;;;;;;;32.80;22.30;;;;;;;7.74;74.98;99323.55;232294;201;138110;-56
2024/03/06 15:53:09;;;;;;;30.20;20.70;;;;;;;7.74;75.21;99324.61;232229;196;153196;-53
2024/03/06 15:58:12;;;;;;;29.90;19.70;;;;;;;7.75;75.48;99322.08;232259;197;138911;-55
2024/03/06 16:03:14;;;;;;;31.00;20.40;;;;;;;7.84;75.51;99322.76;232282;196;143003;-55
2024/03/06 16:08:16;;;;;;;32.00;21.10;;;;;;;7.96;75.47;99326.27;232396;203;154198;-52
2024/03/06 16:13:19;;;;;;;27.70;19.40;;;;;;;8.03;75.37;99326.99;232337;196;137688;-53
2024/03/06 16:18:21;;;;;;;27.30;19.20;;;;;;;8.09;75.28;99324.76;232262;203;137774;-54
2024/03/06 16:23:23;;;;;;;29.70;19.40;;;;;;;8.11;75.19;99328.73;232412;204;153788;-52
2024/03/06 16:28:26;;;;;;;27.90;19.40;;;;;;;8.09;75.27;99332.17;232287;204;137846;-52
2024/03/06 16:33:28;;;;;;;24.60;18.50;;;;;;;8.10;75.26;99340.46;232349;200;138324;-55
2024/03/06 16:38:30;;;;;;;26.60;17.70;;;;;;;8.09;75.18;99345.25;231748;204;156648;-53
2024/03/06 16:43:33;;;;;;;23.80;17.00;;;;;;;8.12;75.31;99344.23;232384;201;137861;-54
2024/03/06 16:48:35;;;;;;;22.80;17.60;;;;;;;8.20;75.28;99348.08;232317;201;140064;-53
2024/03/06 16:53:38;;;;;;;24.50;17.10;;;;;;;8.25;74.87;99349.81;232266;198;156844;-54
2024/03/06 16:58:40;;;;;;;27.50;18.30;;;;;;;8.24;74.48;99356.05;232339;204;138160;-51
2024/03/06 17:03:44;;;;;;;23.30;17.60;;;;;;;8.22;74.30;99360.54;232301;204;138225;-53
2024/03/06 17:08:48;;;;;;;24.60;17.50;;;;;;;8.16;74.23;99367.89;232459;203;154888;-54
2024/03/06 17:13:51;;;;;;;25.80;17.20;;;;;;;8.09;74.19;99374.06;232418;196;137343;-52
2024/03/06 17:18:54;;;;;;;24.50;16.60;;;;;;;8.01;74.28;99382.54;232463;203;138350;-55
2024/03/06 17:23:58;;;;;;;18.30;13.50;;;;;;;7.94;74.35;99385.39;232367;200;153972;-51
2024/03/06 17:29:02;;;;;;;16.30;11.40;;;;;;;7.86;73.94;99389.62;232544;204;139459;-51
2024/03/06 17:34:06;;;;;;;13.90;10.30;;;;;;;7.75;73.81;99394.16;232480;204;141568;-50
2024/03/06 17:39:10;;;;;;;12.50;9.60;;;;;;;7.71;73.80;99403.71;232319;204;152990;-53
2024/03/06 17:44:13;;;;;;;9.40;6.80;;;;;;;7.66;73.36;99410.98;232555;201;137548;-52
2024/03/06 17:49:17;;;;;;;9.30;5.90;;;;;;;7.53;72.81;99409.60;232518;200;137986;-53
2024/03/06 17:54:23;;;;;;;29.80;20.10;;;;;;;7.47;73.22;99414.30;232471;204;155391;-53
2024/03/06 17:59:26;;;;;;;9.30;7.00;;;;;;;7.45;73.16;99414.36;232524;204;138024;-52
2024/03/06 18:04:30;;;;;;;8.40;6.60;;;;;;;7.38;73.12;99415.23;232248;204;138278;-53
2024/03/06 18:09:33;;;;;;;9.10;5.90;;;;;;;7.28;73.33;99418.28;232425;204;153698;-53
2024/03/06 18:14:36;;;;;;;6.30;4.80;;;;;;;7.16;73.46;99426.02;232270;204;138422;-54
2024/03/06 18:19:40;;;;;;;8.00;5.50;;;;;;;7.14;73.61;99427.88;232331;204;138488;-52
2024/03/06 18:24:44;;;;;;;7.40;5.40;;;;;;;7.14;73.48;99426.30;232436;205;153105;-51
2024/03/06 18:29:47;;;;;;;6.10;4.80;;;;;;;7.10;73.48;99430.33;232367;204;137061;-50
2024/03/06 18:34:55;;;;;;;8.20;5.50;;;;;;;7.10;73.60;99434.23;232441;201;139624;-52
2024/03/06 18:39:58;;;;;;;6.30;4.70;;;;;;;7.06;73.33;99435.23;232352;204;153163;-52
2024/03/06 18:45:02;;;;;;;5.90;4.50;;;;;;;7.00;73.03;99439.57;232454;203;137810;-53
2024/03/06 18:50:06;;;;;;;6.60;4.90;;;;;;;6.94;73.09;99440.19;232472;204;137457;-52
2024/03/06 18:55:10;;;;;;;7.10;5.30;;;;;;;6.90;73.25;99444.04;232531;204;154006;-54
2024/03/06 19:00:14;;;;;;;5.90;4.40;;;;;;;6.83;73.30;99447.84;232291;201;137119;-51
2024/03/06 19:05:19;;;;;;;6.40;4.80;;;;;;;6.80;73.22;99455.54;232295;204;141433;-53
2024/03/06 19:10:23;;;;;;;5.90;4.70;;;;;;;6.83;72.96;99460.02;232501;204;153875;-55
2024/03/06 19:15:26;;;;;;;5.90;4.40;;;;;;;6.82;72.67;99465.88;232434;201;137772;-52
2024/03/06 19:20:30;;;;;;;9.30;7.30;;;;;;;6.78;72.62;99467.45;232480;201;137934;-51
2024/03/06 19:25:33;;;;;;;6.60;5.00;;;;;;;6.73;72.73;99473.11;232590;200;154883;-54
2024/03/06 19:30:36;;;;;;;7.00;5.70;;;;;;;6.68;72.79;99477.88;232507;204;137893;-55
2024/03/06 19:35:42;;;;;;;6.30;5.60;;;;;;;6.65;72.92;99482.92;232280;201;137894;-52
2024/03/06 19:40:46;;;;;;;6.60;5.10;;;;;;;6.65;73.16;99489.64;232541;204;153734;-53
2024/03/06 19:45:49;;;;;;;7.70;6.00;;;;;;;6.64;73.37;99493.38;232482;204;138396;-54
2024/03/06 19:50:54;;;;;;;7.40;6.00;;;;;;;6.66;73.43;99498.08;232010;204;138605;-51
2024/03/06 19:55:58;;;;;;;7.40;5.30;;;;;;;6.69;73.49;99499.54;232256;201;154832;-50
2024/03/06 20:01:02;;;;;;;269.30;204.90;;;;;;;6.76;73.35;99498.91;232391;204;138717;-55
2024/03/06 20:06:05;;;;;;;34.60;25.70;;;;;;;6.94;74.52;99496.06;232246;204;138594;-54
2024/03/06 20:11:08;;;;;;;10.10;7.40;;;;;;;7.07;73.54;99491.84;232172;198;153174;-56
2024/03/06 20:16:12;;;;;;;10.60;7.10;;;;;;;7.01;73.00;99497.20;232346;204;138098;-52
2024/03/06 20:21:15;;;;;;;9.10;6.20;;;;;;;6.94;72.72;99499.77;232350;204;138797;-53
2024/03/06 20:26:19;;;;;;;7.60;6.30;;;;;;;6.83;72.80;99504.98;232372;200;153182;-53
2024/03/06 20:31:22;;;;;;;103.20;73.30;;;;;;;6.81;73.12;99507.15;232191;203;138382;-51
2024/03/06 20:36:25;;;;;;;10.90;7.80;;;;;;;6.83;73.10;99506.05;232484;201;138793;-53
2024/03/06 20:41:29;;;;;;;8.50;6.30;;;;;;;6.78;72.52;99507.81;232449;201;153323;-53
2024/03/06 20:46:33;;;;;;;7.50;6.40;;;;;;;6.78;72.12;99507.47;231808;204;138818;-52
2024/03/06 20:51:36;;;;;;;10.00;6.90;;;;;;;6.75;72.08;99508.66;232311;196;137431;-53
2024/03/06 20:56:39;;;;;;;8.40;6.70;;;;;;;6.74;71.94;99508.86;232321;201;154380;-53
2024/03/06 21:01:44;;;;;;;8.90;6.80;;;;;;;6.67;71.93;99512.33;232400;204;137835;-59
2024/03/06 21:06:48;;;;;;;14.60;10.70;;;;;;;6.65;72.47;99513.96;232316;204;138133;-54
2024/03/06 21:11:51;;;;;;;9.60;7.70;;;;;;;6.61;71.99;99512.55;232239;204;153372;-52
2024/03/06 21:16:54;;;;;;;11.90;9.30;;;;;;;6.55;71.72;99513.13;232397;204;138507;-53
2024/03/06 21:21:58;;;;;;;10.60;8.10;;;;;;;6.50;71.76;99518.76;232505;203;137919;-54
2024/03/06 21:27:02;;;;;;;10.20;8.20;;;;;;;6.50;71.87;99521.39;232527;201;153796;-54
2024/03/06 21:32:05;;;;;;;14.00;8.90;;;;;;;6.48;71.68;99524.13;232346;197;138653;-52
2024/03/06 21:37:09;;;;;;;14.70;10.00;;;;;;;6.45;71.64;99523.36;232515;204;139506;-54
2024/03/06 21:42:12;;;;;;;12.70;9.10;;;;;;;6.50;71.65;99522.81;232295;200;153410;-53
2024/03/06 21:47:16;;;;;;;12.20;9.20;;;;;;;6.51;71.35;99525.98;232342;204;138001;-54
2024/03/06 21:52:19;;;;;;;12.60;9.00;;;;;;;6.48;71.33;99519.56;232289;197;138010;-53
2024/03/06 21:57:22;;;;;;;14.70;9.20;;;;;;;6.43;70.96;99524.16;232415;200;154150;-54
2024/03/06 22:02:25;;;;;;;13.80;10.00;;;;;;;6.34;71.19;99524.45;232238;197;138289;-54
2024/03/06 22:07:29;;;;;;;12.40;9.20;;;;;;;6.32;71.11;99523.67;232426;201;138009;-53
2024/03/06 22:12:32;;;;;;;12.90;9.90;;;;;;;6.28;71.25;99524.35;232476;204;153422;-55
2024/03/06 22:17:36;;;;;;;14.80;9.70;;;;;;;6.24;71.47;99524.30;232234;201;138377;-51
2024/03/06 22:22:40;;;;;;;14.20;9.40;;;;;;;6.23;71.22;99526.98;232418;204;138131;-53
2024/03/06 22:27:43;;;;;;;15.40;10.90;;;;;;;6.25;71.46;99529.74;232412;204;154263;-54
2024/03/06 22:32:46;;;;;;;17.30;10.80;;;;;;;6.30;71.30;99527.95;232418;200;138240;-53
2024/03/06 22:37:50;;;;;;;18.10;12.10;;;;;;;6.31;71.35;99527.38;232212;198;137628;-52
2024/03/06 22:42:53;;;;;;;21.70;12.90;;;;;;;6.33;71.45;99528.23;232424;204;153228;-50
2024/03/06 22:47:56;;;;;;;21.20;13.10;;;;;;;6.32;71.54;99527.02;231210;204;138609;-53
2024/03/06 22:53:01;;;;;;;21.30;13.90;;;;;;;6.25;71.48;99529.23;231700;200;141628;-49
2024/03/06 22:58:05;;;;;;;25.30;15.00;;;;;;;6.22;71.79;99524.39;231755;203;153574;-50
2024/03/06 23:03:08;;;;;;;25.70;13.80;;;;;;;6.22;71.78;99523.17;232455;201;139434;-53
2024/03/06 23:08:13;;;;;;;26.20;15.60;;;;;;;6.15;71.50;99524.45;232431;204;138132;-52
2024/03/06 23:13:17;;;;;;;24.80;15.10;;;;;;;6.09;71.62;99525.37;232358;201;154313;-53
2024/03/06 23:18:21;;;;;;;28.30;16.00;;;;;;;6.07;71.88;99529.15;232185;201;138572;-54
2024/03/06 23:23:26;;;;;;;24.30;13.90;;;;;;;6.04;71.74;99528.39;232380;203;138317;-53